createdAt,value
2022-10-10T00:00:34.005Z,34.90
2022-10-10T00:05:40.122Z,33.10
2022-10-10T00:10:42.000Z,26.30
2022-10-10T00:15:48.067Z,32.10
2022-10-10T00:20:52.695Z,28.80
2022-10-10T00:25:54.740Z,31.80
2022-10-10T00:30:56.534Z,30.20
2022-10-10T00:35:59.622Z,27.40
2022-10-10T00:41:02.150Z,31.60
2022-10-10T00:46:04.418Z,33.50
2022-10-10T00:51:10.168Z,22.90
2022-10-10T00:56:14.013Z,30.10
2022-10-10T01:01:15.985Z,25.70
2022-10-10T01:06:17.708Z,23.90
2022-10-10T01:11:22.340Z,23.80
2022-10-10T01:16:29.702Z,23.90
2022-10-10T01:21:51.025Z,25.40
2022-10-10T01:27:19.019Z,28.20
2022-10-10T01:37:46.136Z,26.20
2022-10-10T01:42:53.325Z,27.40
2022-10-10T01:48:16.352Z,24.40
2022-10-10T01:53:39.189Z,28.00
2022-10-10T01:59:03.728Z,31.00
2022-10-10T02:04:15.821Z,31.60
2022-10-10T02:09:23.274Z,34.60
2022-10-10T02:14:31.454Z,34.80
2022-10-10T02:19:34.563Z,32.70
2022-10-10T02:24:36.614Z,38.70
2022-10-10T02:29:48.813Z,34.40
2022-10-10T02:35:17.289Z,42.60
2022-10-10T02:40:28.977Z,38.20
2022-10-10T02:45:33.352Z,37.00
2022-10-10T02:50:35.688Z,39.80
2022-10-10T02:55:37.966Z,41.10
2022-10-10T03:00:39.781Z,42.10
2022-10-10T03:05:42.074Z,35.50
2022-10-10T03:10:58.882Z,47.00
2022-10-10T03:16:00.615Z,43.30
2022-10-10T03:21:08.895Z,42.60
2022-10-10T03:26:10.818Z,43.60
2022-10-10T03:31:12.612Z,46.70
2022-10-10T03:36:14.714Z,49.50
2022-10-10T03:41:16.503Z,50.60
2022-10-10T03:46:18.357Z,58.60
2022-10-10T03:51:20.287Z,54.00
2022-10-10T03:56:22.068Z,52.40
2022-10-10T04:01:23.933Z,59.00
2022-10-10T04:06:26.056Z,62.90
2022-10-10T04:11:27.977Z,57.20
2022-10-10T04:16:29.649Z,63.70
2022-10-10T04:21:31.709Z,61.10
2022-10-10T04:26:33.465Z,68.70
2022-10-10T04:31:35.737Z,103.40
2022-10-10T04:36:37.450Z,64.70
2022-10-10T04:41:39.262Z,68.80
2022-10-10T04:46:41.119Z,72.20
2022-10-10T04:51:43.000Z,56.50
2022-10-10T04:56:46.010Z,50.30
2022-10-10T05:02:11.166Z,51.40
2022-10-10T05:07:26.528Z,58.50
2022-10-10T05:12:28.324Z,57.00
2022-10-10T05:17:34.264Z,57.90
2022-10-10T05:22:36.190Z,49.10
2022-10-10T05:27:38.113Z,52.90
2022-10-10T05:32:39.829Z,55.50
2022-10-10T05:37:41.635Z,59.40
2022-10-10T05:42:46.768Z,60.40
2022-10-10T05:47:48.478Z,58.80
2022-10-10T05:52:51.528Z,57.20
2022-10-10T05:57:54.257Z,46.00
2022-10-10T06:02:58.523Z,55.10
2022-10-10T06:08:07.822Z,53.10
2022-10-10T06:13:23.845Z,50.70
2022-10-10T06:18:26.495Z,55.50
2022-10-10T06:23:29.328Z,46.30
2022-10-10T06:28:31.414Z,49.70
2022-10-10T06:33:33.518Z,45.80
2022-10-10T06:38:39.412Z,50.70
2022-10-10T06:43:41.723Z,48.40
2022-10-10T06:48:43.998Z,46.00
2022-10-10T06:53:46.551Z,42.50
2022-10-10T06:58:49.056Z,38.00
2022-10-10T07:03:50.917Z,38.40
2022-10-10T07:08:52.632Z,33.10
2022-10-10T07:13:54.535Z,32.60
2022-10-10T07:18:56.200Z,28.80
2022-10-10T07:23:58.447Z,25.00
2022-10-10T07:29:00.371Z,27.60
2022-10-10T07:34:02.761Z,26.10
2022-10-10T07:39:04.481Z,29.60
2022-10-10T07:44:30.189Z,26.80
2022-10-10T07:49:43.389Z,22.90
2022-10-10T07:54:45.060Z,24.10
2022-10-10T07:59:47.001Z,20.50
2022-10-10T08:05:09.163Z,21.50
2022-10-10T08:10:23.293Z,24.50
2022-10-10T08:15:26.897Z,24.90
2022-10-10T08:20:30.832Z,20.00
2022-10-10T08:25:33.583Z,22.50
2022-10-10T08:30:41.114Z,24.60
2022-10-10T08:35:43.102Z,25.00
2022-10-10T08:40:57.563Z,19.00
2022-10-10T08:46:06.552Z,21.10
2022-10-10T08:51:14.822Z,18.70
2022-10-10T08:56:23.620Z,16.20
2022-10-10T09:01:33.799Z,19.20
2022-10-10T09:06:53.724Z,16.20
2022-10-10T09:12:14.535Z,20.10
2022-10-10T09:17:38.102Z,18.20
2022-10-10T09:22:53.183Z,15.50
2022-10-10T09:28:03.553Z,16.50
2022-10-10T09:33:23.572Z,17.60
2022-10-10T09:38:37.541Z,15.70
2022-10-10T09:43:41.039Z,15.80
2022-10-10T09:48:43.232Z,14.80
2022-10-10T09:53:47.597Z,17.10
2022-10-10T09:58:51.982Z,15.80
2022-10-10T10:04:30.131Z,15.80
2022-10-10T10:09:32.153Z,16.80
2022-10-10T10:14:38.812Z,17.50
2022-10-10T10:19:43.970Z,16.70
2022-10-10T10:24:45.847Z,19.70
2022-10-10T10:29:53.121Z,16.40
2022-10-10T10:35:07.965Z,17.60
2022-10-10T10:40:25.139Z,15.00
2022-10-10T10:45:45.514Z,17.40
2022-10-10T10:51:29.567Z,23.60
2022-10-10T10:56:46.404Z,16.50
2022-10-10T11:02:11.498Z,18.50
2022-10-10T11:07:22.523Z,20.60
2022-10-10T11:12:43.555Z,15.80
2022-10-10T11:17:51.279Z,15.30
2022-10-10T11:23:08.670Z,14.80
2022-10-10T11:28:22.390Z,13.70
2022-10-10T11:33:30.770Z,11.80
2022-10-10T11:38:59.789Z,14.60
2022-10-10T11:44:19.108Z,12.50
2022-10-10T11:49:42.640Z,13.30
2022-10-10T11:55:37.591Z,14.00
2022-10-10T12:00:46.124Z,11.00
2022-10-10T12:05:53.074Z,18.60
2022-10-10T12:11:05.699Z,11.50
2022-10-10T12:16:43.122Z,15.40
2022-10-10T12:22:09.095Z,13.30
2022-10-10T12:27:27.472Z,12.50
2022-10-10T12:32:43.671Z,15.20
2022-10-10T12:38:05.984Z,17.20
2022-10-10T12:43:26.190Z,15.00
2022-10-10T12:48:27.973Z,15.70
2022-10-10T12:53:33.399Z,16.40
2022-10-10T12:58:39.368Z,16.00
2022-10-10T13:04:02.245Z,13.40
2022-10-10T13:09:18.417Z,13.60
2022-10-10T13:14:21.069Z,14.60
2022-10-10T13:19:25.163Z,17.60
2022-10-10T13:24:31.983Z,13.40
2022-10-10T13:29:36.015Z,15.30
2022-10-10T13:34:42.499Z,12.80
2022-10-10T13:40:03.150Z,18.80
2022-10-10T13:45:30.282Z,14.60
2022-10-10T13:50:44.705Z,15.10
2022-10-10T13:55:59.993Z,17.70
2022-10-10T14:01:04.328Z,16.30
2022-10-10T14:06:08.009Z,18.60
2022-10-10T14:11:17.800Z,18.50
2022-10-10T14:16:20.170Z,17.80
2022-10-10T14:21:23.028Z,22.70
2022-10-10T14:26:25.137Z,14.40
2022-10-10T14:31:28.941Z,20.50
2022-10-10T14:36:30.826Z,19.70
2022-10-10T14:41:32.682Z,19.50
2022-10-10T14:46:35.015Z,17.80
2022-10-10T14:51:38.612Z,19.90
2022-10-10T14:57:08.237Z,21.20
2022-10-10T15:02:06.578Z,28.20
2022-10-10T15:07:14.365Z,19.40
2022-10-10T15:12:18.413Z,23.90
2022-10-10T15:17:20.319Z,17.80
2022-10-10T15:22:30.247Z,16.00
2022-10-10T15:27:32.835Z,24.00
2022-10-10T15:32:41.323Z,19.80
2022-10-10T15:37:43.613Z,18.80
2022-10-10T15:42:46.382Z,16.20
2022-10-10T15:47:48.326Z,20.90
2022-10-10T15:52:50.081Z,19.80
2022-10-10T15:57:51.792Z,25.80
2022-10-10T16:02:53.620Z,25.60
2022-10-10T16:08:07.516Z,35.10
2022-10-10T16:13:10.783Z,26.50
2022-10-10T16:18:12.696Z,62.40
2022-10-10T16:23:14.707Z,84.50
2022-10-10T16:28:16.667Z,52.40
2022-10-10T16:33:20.350Z,47.70
2022-10-10T16:38:22.047Z,46.60
2022-10-10T16:43:23.861Z,36.30
2022-10-10T16:48:25.765Z,42.10
2022-10-10T16:53:27.955Z,38.00
2022-10-10T16:58:30.011Z,34.60
2022-10-10T17:03:31.812Z,45.40
2022-10-10T17:08:34.197Z,46.20
2022-10-10T17:13:43.092Z,52.30
2022-10-10T17:18:44.946Z,72.70
2022-10-10T17:23:47.777Z,47.70
2022-10-10T17:28:50.417Z,37.30
2022-10-10T17:33:54.397Z,44.80
2022-10-10T17:39:03.795Z,56.30
2022-10-10T17:44:10.256Z,48.00
2022-10-10T17:49:12.421Z,65.50
2022-10-10T17:54:14.418Z,64.00
2022-10-10T17:59:16.156Z,50.20
2022-10-10T18:04:17.885Z,47.00
2022-10-10T18:09:20.176Z,44.20
2022-10-10T18:14:22.481Z,45.30
2022-10-10T18:19:24.823Z,48.40
2022-10-10T18:24:26.934Z,49.60
2022-10-10T18:29:28.746Z,49.80
2022-10-10T18:34:30.587Z,51.40
2022-10-10T18:39:35.636Z,55.50
2022-10-10T18:44:37.371Z,77.40
2022-10-10T18:49:39.087Z,70.50
2022-10-10T18:54:41.229Z,55.30
2022-10-10T18:59:43.250Z,46.70
2022-10-10T19:04:47.998Z,43.50
2022-10-10T19:09:50.112Z,46.90
2022-10-10T19:14:52.009Z,55.20
2022-10-10T19:19:53.909Z,48.50
2022-10-10T19:24:56.512Z,46.10
2022-10-10T19:29:59.330Z,50.20
2022-10-10T19:35:01.311Z,53.50
2022-10-10T19:40:03.566Z,53.30
2022-10-10T19:45:15.327Z,56.30
2022-10-10T19:50:26.421Z,62.60
2022-10-10T19:55:28.617Z,63.30
2022-10-10T20:00:30.532Z,59.40
2022-10-10T20:05:32.223Z,59.50
2022-10-10T20:10:34.332Z,65.30
2022-10-10T20:15:43.136Z,80.00
2022-10-10T20:20:48.326Z,88.10
2022-10-10T20:25:50.900Z,95.00
2022-10-10T20:30:53.951Z,80.70
2022-10-10T20:35:56.285Z,86.60
2022-10-10T20:41:05.413Z,80.50
2022-10-10T20:46:08.979Z,88.20
2022-10-10T20:51:13.649Z,85.80
2022-10-10T20:56:15.380Z,78.00
2022-10-10T21:01:21.330Z,91.40
2022-10-10T21:06:27.285Z,77.10
2022-10-10T21:11:29.038Z,80.60
2022-10-10T21:16:33.991Z,77.40
2022-10-10T21:21:38.382Z,83.60
2022-10-10T21:26:42.002Z,66.70
2022-10-10T21:31:43.922Z,66.70
2022-10-10T21:36:54.783Z,54.00
2022-10-10T21:41:56.486Z,52.40
2022-10-10T21:46:58.313Z,38.10
2022-10-10T21:52:00.373Z,37.60
2022-10-10T21:57:02.078Z,34.40
2022-10-10T22:02:03.948Z,30.20
2022-10-10T22:07:05.643Z,27.30
2022-10-10T22:12:27.262Z,24.40
2022-10-10T22:17:37.171Z,24.10
2022-10-10T22:22:41.359Z,22.60
2022-10-10T22:27:44.097Z,23.90
2022-10-10T22:32:45.893Z,21.30
2022-10-10T22:37:47.730Z,21.20
2022-10-10T22:42:50.156Z,22.60
2022-10-10T22:47:51.955Z,22.20
2022-10-10T22:52:53.775Z,19.30
2022-10-10T22:57:55.545Z,20.00
2022-10-10T23:02:58.464Z,19.90
2022-10-10T23:08:00.488Z,16.20
2022-10-10T23:13:09.559Z,15.90
2022-10-10T23:18:11.633Z,17.10
2022-10-10T23:23:14.127Z,14.50
2022-10-10T23:28:17.450Z,17.00
2022-10-10T23:33:19.276Z,12.70
2022-10-10T23:38:20.956Z,13.60
2022-10-10T23:43:23.924Z,13.20
2022-10-10T23:48:25.747Z,18.20
2022-10-10T23:53:27.609Z,13.90
2022-10-10T23:58:29.326Z,13.70
